Time,TemperatureF,DewpointF,PressureIn,WindDirection,WindDirectionDegrees,WindSpeedMPH,WindSpeedGustMPH,Humidity,HourlyPrecipIn,Conditions,Clouds,dailyrainin,SolarRadiationWatts/m^2,SoftwareType,DateUTC
2013-03-27 00:23:00,26.0,22.0,-100.00,NNW,346,2.0,5.0,86,0.00,,,0.00,1.000000,,2013-03-27 04:23:00,
2013-03-27 00:33:00,26.0,22.0,-100.00,NNW,346,2.0,5.0,86,0.00,,,0.00,1.000000,,2013-03-27 04:33:00,
2013-03-27 00:42:00,26.0,22.0,-100.00,NNW,346,2.0,5.0,86,0.00,,,0.00,1.000000,,2013-03-27 04:42:00,
2013-03-27 00:52:00,26.0,22.0,-100.00,NNW,346,2.0,5.0,86,0.00,,,0.00,1.000000,,2013-03-27 04:52:00,
2013-03-27 01:23:00,22.0,19.0,-100.00,NNE,13,0.0,4.0,88,0.00,,,0.00,1.000000,,2013-03-27 05:23:00,
2013-03-27 01:33:00,22.0,19.0,-100.00,NNE,13,0.0,4.0,88,0.00,,,0.00,1.000000,,2013-03-27 05:33:00,
2013-03-27 01:42:00,22.0,19.0,-100.00,NNE,13,0.0,4.0,88,0.00,,,0.00,1.000000,,2013-03-27 05:42:00,
2013-03-27 01:52:00,22.0,19.0,-100.00,NNE,13,0.0,4.0,88,0.00,,,0.00,1.000000,,2013-03-27 05:52:00,
2013-03-27 02:22:00,18.0,16.0,-100.00,NNE,31,0.0,2.0,92,0.00,,,0.00,1.000000,,2013-03-27 06:22:00,
2013-03-27 02:32:00,18.0,16.0,-100.00,NNE,31,0.0,2.0,92,0.00,,,0.00,1.000000,,2013-03-27 06:32:00,
2013-03-27 02:42:00,18.0,16.0,-100.00,NNE,31,0.0,2.0,92,0.00,,,0.00,1.000000,,2013-03-27 06:42:00,
2013-03-27 02:52:00,18.0,16.0,-100.00,NNE,31,0.0,2.0,92,0.00,,,0.00,1.000000,,2013-03-27 06:52:00,
2013-03-27 03:22:00,16.0,14.0,-100.00,NNE,23,0.0,0.0,91,0.00,,,0.00,1.000000,,2013-03-27 07:22:00,
2013-03-27 03:32:00,16.0,14.0,-100.00,NNE,23,0.0,0.0,91,0.00,,,0.00,1.000000,,2013-03-27 07:32:00,
2013-03-27 03:42:00,16.0,14.0,-100.00,NNE,23,0.0,0.0,91,0.00,,,0.00,1.000000,,2013-03-27 07:42:00,
2013-03-27 03:53:00,16.0,14.0,-100.00,NNE,23,0.0,0.0,91,0.00,,,0.00,1.000000,,2013-03-27 07:53:00,
2013-03-27 04:22:00,14.0,11.0,-100.00,North,10,0.0,0.0,89,0.00,,,0.00,1.000000,,2013-03-27 08:22:00,
2013-03-27 04:32:00,14.0,11.0,-100.00,North,10,0.0,0.0,89,0.00,,,0.00,1.000000,,2013-03-27 08:32:00,
2013-03-27 04:43:00,14.0,11.0,-100.00,North,10,0.0,0.0,89,0.00,,,0.00,1.000000,,2013-03-27 08:43:00,
2013-03-27 04:52:00,14.0,11.0,-100.00,North,10,0.0,0.0,89,0.00,,,0.00,1.000000,,2013-03-27 08:52:00,
2013-03-27 05:22:00,13.0,10.0,-100.00,NNE,17,0.0,2.0,89,0.00,,,0.00,1.000000,,2013-03-27 09:22:00,
2013-03-27 05:32:00,13.0,10.0,-100.00,NNE,17,0.0,2.0,89,0.00,,,0.00,1.000000,,2013-03-27 09:32:00,
2013-03-27 05:42:00,13.0,10.0,-100.00,NNE,17,0.0,2.0,89,0.00,,,0.00,1.000000,,2013-03-27 09:42:00,
2013-03-27 05:52:00,13.0,10.0,-100.00,NNE,17,0.0,2.0,89,0.00,,,0.00,1.000000,,2013-03-27 09:52:00,
2013-03-27 06:23:00,13.0,10.0,-100.00,NNE,21,0.0,2.0,88,0.00,,,0.00,1.000000,,2013-03-27 10:23:00,
2013-03-27 06:32:00,13.0,10.0,-100.00,NNE,21,0.0,2.0,88,0.00,,,0.00,1.000000,,2013-03-27 10:32:00,
2013-03-27 06:42:00,13.0,10.0,-100.00,NNE,21,0.0,2.0,88,0.00,,,0.00,1.000000,,2013-03-27 10:42:00,
2013-03-27 06:52:00,13.0,10.0,-100.00,NNE,21,0.0,2.0,88,0.00,,,0.00,1.000000,,2013-03-27 10:52:00,
2013-03-27 07:22:00,16.0,13.0,-100.00,North,4,0.0,0.0,89,0.00,,,0.00,1.000000,,2013-03-27 11:22:00,
2013-03-27 07:32:00,16.0,13.0,-100.00,North,4,0.0,0.0,89,0.00,,,0.00,1.000000,,2013-03-27 11:32:00,
2013-03-27 07:42:00,16.0,13.0,-100.00,North,4,0.0,0.0,89,0.00,,,0.00,1.000000,,2013-03-27 11:42:00,
2013-03-27 07:52:00,16.0,13.0,-100.00,North,4,0.0,0.0,89,0.00,,,0.00,1.000000,,2013-03-27 11:52:00,
2013-03-27 08:23:00,19.0,17.0,-100.00,North,350,1.0,4.0,90,0.00,,,0.00,2.000000,,2013-03-27 12:23:00,
2013-03-27 08:32:00,19.0,17.0,-100.00,North,350,1.0,4.0,90,0.00,,,0.00,2.000000,,2013-03-27 12:32:00,
2013-03-27 08:43:00,19.0,17.0,-100.00,North,350,1.0,4.0,90,0.00,,,0.00,2.000000,,2013-03-27 12:43:00,
2013-03-27 08:52:00,19.0,17.0,-100.00,North,350,1.0,4.0,90,0.00,,,0.00,2.000000,,2013-03-27 12:52:00,
2013-03-27 09:22:00,28.0,26.0,-100.00,NNW,330,2.0,6.0,91,0.00,,,0.00,60.000000,,2013-03-27 13:22:00,
2013-03-27 09:32:00,28.0,26.0,-100.00,NNW,330,2.0,6.0,91,0.00,,,0.00,60.000000,,2013-03-27 13:32:00,
2013-03-27 09:42:00,28.0,26.0,-100.00,NNW,330,2.0,6.0,91,0.00,,,0.00,60.000000,,2013-03-27 13:42:00,
2013-03-27 09:52:00,28.0,26.0,-100.00,NNW,330,2.0,6.0,91,0.00,,,0.00,60.000000,,2013-03-27 13:52:00,
2013-03-27 10:22:00,36.0,27.0,-100.00,NNW,329,4.0,7.0,69,0.00,,,0.00,260.000000,,2013-03-27 14:22:00,
2013-03-27 10:32:00,36.0,27.0,-100.00,NNW,329,4.0,7.0,69,0.00,,,0.00,260.000000,,2013-03-27 14:32:00,
2013-03-27 10:42:00,36.0,27.0,-100.00,NNW,329,4.0,7.0,69,0.00,,,0.00,260.000000,,2013-03-27 14:42:00,
2013-03-27 10:52:00,36.0,27.0,-100.00,NNW,329,4.0,7.0,69,0.00,,,0.00,260.000000,,2013-03-27 14:52:00,
2013-03-27 11:22:00,39.0,22.0,-100.00,NNW,327,6.0,14.0,51,0.00,,,0.00,447.000000,,2013-03-27 15:22:00,
2013-03-27 11:33:00,39.0,22.0,-100.00,NNW,327,6.0,14.0,51,0.00,,,0.00,447.000000,,2013-03-27 15:33:00,
2013-03-27 11:42:00,39.0,22.0,-100.00,NNW,327,6.0,14.0,51,0.00,,,0.00,447.000000,,2013-03-27 15:42:00,
2013-03-27 11:52:00,39.0,22.0,-100.00,NNW,327,6.0,14.0,51,0.00,,,0.00,447.000000,,2013-03-27 15:52:00,
2013-03-27 14:22:00,41.0,18.0,-100.00,NNW,342,6.0,15.0,39,-99.99,,,0.00,520.000000,,2013-03-27 18:22:00,
2013-03-27 14:32:00,41.0,18.0,-100.00,NNW,342,6.0,15.0,39,-99.99,,,0.00,520.000000,,2013-03-27 18:32:00,
2013-03-27 14:42:00,41.0,18.0,-100.00,NNW,342,6.0,15.0,39,-99.99,,,0.00,520.000000,,2013-03-27 18:42:00,
2013-03-27 14:52:00,41.0,18.0,-100.00,NNW,342,6.0,15.0,39,-99.99,,,0.00,520.000000,,2013-03-27 18:52:00,
2013-03-27 15:42:00,45.0,18.0,-100.00,WNW,293,7.0,13.0,33,0.00,,,0.00,783.000000,,2013-03-27 19:42:00,
2013-03-27 15:52:00,45.0,18.0,-100.00,WNW,293,7.0,13.0,33,0.00,,,0.00,783.000000,,2013-03-27 19:52:00,
2013-03-27 16:22:00,45.0,18.0,-100.00,NW,322,6.0,12.0,33,0.00,,,0.00,679.000000,,2013-03-27 20:22:00,
2013-03-27 16:32:00,45.0,18.0,-100.00,NW,322,6.0,12.0,33,0.00,,,0.00,679.000000,,2013-03-27 20:32:00,
2013-03-27 16:42:00,45.0,18.0,-100.00,NW,322,6.0,12.0,33,0.00,,,0.00,679.000000,,2013-03-27 20:42:00,
2013-03-27 16:52:00,45.0,18.0,-100.00,NW,322,6.0,12.0,33,0.00,,,0.00,679.000000,,2013-03-27 20:52:00,
2013-03-27 17:22:00,43.0,15.0,-100.00,WNW,289,7.0,12.0,32,0.00,,,0.00,639.000000,,2013-03-27 21:22:00,
2013-03-27 17:32:00,43.0,15.0,-100.00,WNW,289,7.0,12.0,32,0.00,,,0.00,639.000000,,2013-03-27 21:32:00,
2013-03-27 17:43:00,43.0,15.0,-100.00,WNW,289,7.0,12.0,32,0.00,,,0.00,639.000000,,2013-03-27 21:43:00,
2013-03-27 17:52:00,43.0,15.0,-100.00,WNW,289,7.0,12.0,32,0.00,,,0.00,639.000000,,2013-03-27 21:52:00,
2013-03-27 18:23:00,43.0,17.0,-100.00,WNW,296,6.0,13.0,34,0.00,,,0.00,507.000000,,2013-03-27 22:23:00,
2013-03-27 18:33:00,43.0,17.0,-100.00,WNW,296,6.0,13.0,34,0.00,,,0.00,507.000000,,2013-03-27 22:33:00,
2013-03-27 18:42:00,43.0,17.0,-100.00,WNW,296,6.0,13.0,34,0.00,,,0.00,507.000000,,2013-03-27 22:42:00,
2013-03-27 18:52:00,43.0,17.0,-100.00,WNW,296,6.0,13.0,34,0.00,,,0.00,507.000000,,2013-03-27 22:52:00,
2013-03-27 19:22:00,39.0,14.0,-100.00,NW,307,5.0,12.0,36,0.00,,,0.00,321.000000,,2013-03-27 23:22:00,
2013-03-27 19:32:00,39.0,14.0,-100.00,NW,307,5.0,12.0,36,0.00,,,0.00,321.000000,,2013-03-27 23:32:00,
2013-03-27 19:42:00,39.0,14.0,-100.00,NW,307,5.0,12.0,36,0.00,,,0.00,321.000000,,2013-03-27 23:42:00,
2013-03-27 19:52:00,39.0,14.0,-100.00,NW,307,5.0,12.0,36,0.00,,,0.00,321.000000,,2013-03-27 23:52:00,
2013-03-27 20:22:00,34.0,13.0,-100.00,NNW,333,3.0,10.0,42,0.00,,,0.00,46.000000,,2013-03-28 00:22:00,
2013-03-27 20:32:00,34.0,13.0,-100.00,NNW,333,3.0,10.0,42,0.00,,,0.00,46.000000,,2013-03-28 00:32:00,
2013-03-27 20:43:00,34.0,13.0,-100.00,NNW,333,3.0,10.0,42,0.00,,,0.00,46.000000,,2013-03-28 00:43:00,
2013-03-27 20:52:00,34.0,13.0,-100.00,NNW,333,3.0,10.0,42,0.00,,,0.00,46.000000,,2013-03-28 00:52:00,